Time;durP1;ratioP1;P1;durP2;ratioP2;P2;SDS_P1;SDS_P2;PMS_P1;PMS_P2;Temp;Humidity;BMP_temperature;BMP_pressure;BME280_temperature;BME280_humidity;BME280_pressure;Samples;Min_cycle;Max_cycle;Signal;HPM_P1;HPM_P2
2022/11/21 00:00:05;;;;;;;29.77;16.63;;;2.60;99.90;;;;;;5034178;28;20037;-80
2022/11/21 00:02:31;;;;;;;27.13;16.83;;;2.60;99.90;;;;;;5060220;28;20041;-80
2022/11/21 00:04:57;;;;;;;31.13;19.40;;;2.60;99.90;;;;;;5042690;28;20408;-80
2022/11/21 00:07:22;;;;;;;30.27;17.67;;;2.60;99.90;;;;;;5036018;28;20036;-80
2022/11/21 00:09:48;;;;;;;27.13;16.65;;;2.60;99.90;;;;;;5058933;28;20127;-80
2022/11/21 00:12:15;;;;;;;31.92;19.40;;;2.60;99.90;;;;;;5053500;28;20520;-80
2022/11/21 00:14:41;;;;;;;27.73;17.98;;;2.60;99.90;;;;;;5047252;28;20426;-80
2022/11/21 00:17:06;;;;;;;28.20;16.08;;;2.60;99.90;;;;;;5063394;28;20128;-80
2022/11/21 00:19:32;;;;;;;27.23;17.85;;;2.60;99.90;;;;;;5068105;28;20501;-80
2022/11/21 00:21:58;;;;;;;25.65;16.88;;;2.70;99.90;;;;;;5052486;28;20411;-80
2022/11/21 00:24:24;;;;;;;22.73;15.05;;;2.70;99.90;;;;;;5042388;28;20504;-79
2022/11/21 00:26:49;;;;;;;27.02;16.65;;;2.70;99.90;;;;;;5019107;28;20040;-79
2022/11/21 00:29:15;;;;;;;22.65;15.52;;;2.70;99.90;;;;;;5042986;28;20417;-80
2022/11/21 00:31:41;;;;;;;24.92;17.33;;;2.70;99.90;;;;;;5066206;28;20041;-80
2022/11/21 00:34:08;;;;;;;26.90;16.00;;;3.40;99.90;;;;;;5051456;28;20044;-80
2022/11/21 00:36:34;;;;;;;23.45;15.38;;;2.70;99.90;;;;;;5060916;28;20097;-80
2022/11/21 00:38:59;;;;;;;25.88;15.90;;;2.70;99.90;;;;;;5044214;28;20127;-80
2022/11/21 00:41:25;;;;;;;24.52;14.93;;;2.70;99.90;;;;;;5064101;28;20033;-80
2022/11/21 00:43:51;;;;;;;25.83;17.08;;;2.70;99.90;;;;;;5048915;28;20512;-80
2022/11/21 00:46:16;;;;;;;28.45;18.35;;;2.70;99.90;;;;;;5044920;28;20037;-80
2022/11/21 00:48:42;;;;;;;28.35;17.40;;;3.00;99.90;;;;;;5065810;28;20444;-80
2022/11/21 00:51:07;;;;;;;26.13;17.45;;;2.70;99.90;;;;;;5036844;28;20063;-79
2022/11/21 00:53:33;;;;;;;30.38;18.00;;;2.80;99.90;;;;;;5066028;28;20113;-80
2022/11/21 00:55:59;;;;;;;28.52;17.77;;;3.20;99.90;;;;;;5058944;28;20036;-81
2022/11/21 00:58:25;;;;;;;26.42;17.65;;;3.30;99.90;;;;;;5030549;28;20074;-79
2022/11/21 01:00:51;;;;;;;30.40;19.23;;;3.50;99.90;;;;;;5051304;28;20132;-80
2022/11/21 01:03:16;;;;;;;27.00;17.65;;;2.70;99.90;;;;;;5063990;28;20124;-80
2022/11/21 01:05:42;;;;;;;27.73;17.02;;;2.70;99.90;;;;;;5053398;28;20037;-80
2022/11/21 01:08:08;;;;;;;31.45;18.70;;;2.70;99.90;;;;;;5034059;28;20044;-81
2022/11/21 01:10:34;;;;;;;24.20;16.15;;;2.60;99.90;;;;;;5064348;28;20045;-80
2022/11/21 01:13:00;;;;;;;27.75;18.00;;;2.70;99.90;;;;;;5065486;28;20634;-81
2022/11/21 01:15:26;;;;;;;29.45;19.38;;;2.70;99.90;;;;;;5051754;28;20085;-81
2022/11/21 01:17:51;;;;;;;28.75;18.52;;;2.70;99.90;;;;;;5040125;28;20072;-80
2022/11/21 01:20:17;;;;;;;35.60;19.50;;;2.70;99.90;;;;;;5051708;28;20391;-81
2022/11/21 01:22:43;;;;;;;26.10;16.88;;;2.60;99.90;;;;;;5050045;28;20028;-81
2022/11/21 01:25:08;;;;;;;28.95;17.00;;;2.60;99.90;;;;;;5068284;28;20029;-79
2022/11/21 01:27:34;;;;;;;24.42;16.58;;;2.60;99.90;;;;;;5041085;28;20040;-81
2022/11/21 01:30:00;;;;;;;25.05;16.77;;;2.60;99.90;;;;;;5032395;28;20037;-81
2022/11/21 01:32:25;;;;;;;30.00;17.35;;;2.70;99.90;;;;;;5048164;28;20520;-81
2022/11/21 01:34:51;;;;;;;28.70;16.83;;;2.50;99.90;;;;;;5033550;28;20068;-81
2022/11/21 01:37:17;;;;;;;28.67;17.42;;;2.50;99.90;;;;;;5067400;28;20102;-81
2022/11/21 01:39:42;;;;;;;24.50;16.80;;;2.40;99.90;;;;;;5046089;28;20127;-81
2022/11/21 01:42:11;;;;;;;27.73;17.05;;;2.40;99.90;;;;;;5065708;28;20065;-80
2022/11/21 01:44:52;;;;;;;27.67;18.50;;;2.30;99.90;;;;;;5066752;28;20119;-80
2022/11/21 01:47:18;;;;;;;25.85;16.48;;;2.20;99.90;;;;;;5049947;28;20044;-81
2022/11/21 01:49:45;;;;;;;29.67;18.17;;;2.20;99.90;;;;;;5034941;28;20044;-81
2022/11/21 01:52:30;;;;;;;29.73;18.90;;;2.10;99.90;;;;;;5052101;28;20032;-81
2022/11/21 01:55:09;;;;;;;27.40;16.77;;;2.10;99.90;;;;;;5066636;28;20044;-80
2022/11/21 01:57:42;;;;;;;24.17;16.77;;;2.30;99.90;;;;;;5050220;28;20400;-80
2022/11/21 02:00:20;;;;;;;30.75;17.27;;;1.90;99.90;;;;;;5062810;28;20053;-80
2022/11/21 02:02:52;;;;;;;23.25;15.68;;;1.90;99.90;;;;;;5045137;28;20119;-80
2022/11/21 02:05:24;;;;;;;28.80;17.98;;;1.90;99.90;;;;;;5062806;28;20052;-81
2022/11/21 02:07:54;;;;;;;24.27;15.80;;;1.90;99.90;;;;;;5046254;28;20044;-80
2022/11/21 02:10:21;;;;;;;28.05;17.65;;;1.80;99.90;;;;;;5045787;28;20033;-80
2022/11/21 02:12:51;;;;;;;25.08;15.50;;;1.70;99.90;;;;;;5066316;28;20051;-80
2022/11/21 02:15:19;;;;;;;26.38;17.27;;;1.70;99.90;;;;;;5067554;28;20509;-80
2022/11/21 02:17:44;;;;;;;23.77;15.73;;;1.70;99.90;;;;;;5062354;28;20066;-80
2022/11/21 02:20:13;;;;;;;25.30;16.58;;;1.80;99.90;;;;;;5049778;28;20075;-80
2022/11/21 02:23:01;;;;;;;26.85;17.70;;;1.60;99.90;;;;;;5068333;28;20040;-80
2022/11/21 02:25:32;;;;;;;28.20;17.75;;;1.60;99.90;;;;;;5051886;28;20079;-80
2022/11/21 02:28:02;;;;;;;29.50;17.85;;;1.60;99.90;;;;;;5067509;28;20523;-80
2022/11/21 02:30:30;;;;;;;29.25;17.98;;;1.50;99.90;;;;;;5095743;22;20047;-78
2022/11/21 02:32:56;;;;;;;23.90;14.80;;;1.50;99.90;;;;;;5058488;28;20589;-83
2022/11/21 02:35:22;;;;;;;27.60;17.23;;;1.50;99.90;;;;;;5058497;28;20040;-80
2022/11/21 02:38:08;;;;;;;31.75;18.73;;;2.20;99.90;;;;;;5058249;28;20286;-81
2022/11/21 02:40:40;;;;;;;27.08;17.27;;;1.30;99.90;;;;;;5074206;28;20063;-78
2022/11/21 02:43:13;;;;;;;26.83;17.30;;;1.30;99.90;;;;;;5074568;28;20081;-81
2022/11/21 02:45:42;;;;;;;27.55;16.63;;;2.10;99.90;;;;;;5054170;28;20039;-81
2022/11/21 02:48:08;;;;;;;29.40;17.98;;;2.00;99.90;;;;;;5055601;28;20055;-81
2022/11/21 02:50:39;;;;;;;29.23;17.98;;;1.30;99.90;;;;;;5068043;28;20036;-80
2022/11/21 02:53:08;;;;;;;27.73;18.15;;;1.20;99.90;;;;;;5068945;28;20094;-80
2022/11/21 02:55:34;;;;;;;30.20;19.00;;;1.20;99.90;;;;;;5048833;28;20052;-80
2022/11/21 02:58:00;;;;;;;31.88;19.20;;;1.10;99.90;;;;;;5040342;28;20032;-82
2022/11/21 03:00:25;;;;;;;29.08;17.55;;;1.10;99.90;;;;;;5040312;28;20032;-79
2022/11/21 03:02:52;;;;;;;31.35;18.98;;;1.70;99.90;;;;;;5024087;28;20427;-80
2022/11/21 03:05:19;;;;;;;30.75;20.23;;;1.10;99.90;;;;;;5043782;28;20506;-81
2022/11/21 03:07:45;;;;;;;28.42;18.05;;;1.10;99.90;;;;;;5054098;28;20032;-82
2022/11/21 03:10:12;;;;;;;30.27;18.75;;;1.00;99.90;;;;;;5090010;28;20055;-81
2022/11/21 03:12:40;;;;;;;29.17;18.55;;;1.00;99.90;;;;;;5053249;28;20134;-79
2022/11/21 03:15:08;;;;;;;29.88;17.90;;;0.90;99.90;;;;;;5056114;28;20085;-81
2022/11/21 03:17:33;;;;;;;30.95;19.58;;;0.90;99.90;;;;;;5041820;28;20044;-81
2022/11/21 03:19:59;;;;;;;30.67;20.40;;;0.90;99.90;;;;;;5038781;28;20051;-81
2022/11/21 03:22:25;;;;;;;29.05;17.85;;;0.90;99.90;;;;;;5059573;28;20036;-81
2022/11/21 03:24:51;;;;;;;28.60;16.45;;;1.70;99.90;;;;;;5072404;28;20067;-80
2022/11/21 03:27:17;;;;;;;27.13;16.98;;;0.80;99.90;;;;;;5051309;28;20059;-81
2022/11/21 03:29:42;;;;;;;28.60;18.15;;;1.70;99.90;;;;;;5054436;28;20097;-81
2022/11/21 03:32:08;;;;;;;30.88;19.17;;;0.80;99.90;;;;;;5035839;28;20040;-80
2022/11/21 03:34:34;;;;;;;25.95;17.70;;;0.80;99.90;;;;;;5018726;28;20032;-80
2022/11/21 03:37:00;;;;;;;29.70;16.80;;;0.80;99.90;;;;;;5084060;28;20023;-83
2022/11/21 03:39:26;;;;;;;27.38;17.20;;;0.70;99.90;;;;;;5064528;28;20040;-80
2022/11/21 03:41:52;;;;;;;30.65;18.38;;;0.70;99.90;;;;;;5066702;28;20047;-80
2022/11/21 03:44:17;;;;;;;28.08;17.65;;;0.80;99.90;;;;;;5038142;28;20070;-80
2022/11/21 03:46:45;;;;;;;28.52;17.80;;;0.70;99.90;;;;;;5072773;28;20033;-81
2022/11/21 03:49:13;;;;;;;33.08;17.92;;;0.80;99.90;;;;;;5070555;28;20032;-83
2022/11/21 03:51:39;;;;;;;33.05;19.38;;;0.70;99.90;;;;;;5055110;28;20054;-79
2022/11/21 03:54:05;;;;;;;30.90;18.20;;;1.50;99.90;;;;;;5054526;28;20028;-80
2022/11/21 03:56:32;;;;;;;31.60;18.40;;;0.70;99.90;;;;;;5074372;28;20119;-81
2022/11/21 03:58:57;;;;;;;31.25;18.60;;;0.80;99.90;;;;;;5053821;28;20048;-81
2022/11/21 04:01:24;;;;;;;29.70;18.77;;;0.70;99.90;;;;;;5053531;28;20495;-81
2022/11/21 04:03:50;;;;;;;30.25;18.98;;;0.70;99.90;;;;;;5054811;28;20047;-80
2022/11/21 04:06:18;;;;;;;31.92;17.70;;;0.90;99.90;;;;;;5050065;28;20032;-79
2022/11/21 04:08:44;;;;;;;28.75;16.48;;;1.30;99.90;;;;;;5059407;28;20032;-81
2022/11/21 04:11:10;;;;;;;29.98;18.73;;;0.70;99.90;;;;;;5034934;28;20052;-80
2022/11/21 04:13:36;;;;;;;29.23;18.80;;;0.70;99.90;;;;;;5033443;28;20044;-81
2022/11/21 04:16:02;;;;;;;26.45;16.33;;;0.70;99.90;;;;;;5017977;28;20040;-77
2022/11/21 04:18:31;;;;;;;28.98;18.33;;;0.60;99.90;;;;;;5052756;28;20125;-80
2022/11/21 04:20:57;;;;;;;27.80;18.02;;;0.60;99.90;;;;;;5052914;28;20036;-80
2022/11/21 04:23:24;;;;;;;29.52;17.13;;;0.60;99.90;;;;;;5058386;28;20036;-83
2022/11/21 04:25:49;;;;;;;33.17;19.67;;;0.60;99.90;;;;;;5066948;28;20124;-82
2022/11/21 04:28:15;;;;;;;34.35;21.38;;;0.60;99.90;;;;;;5038454;28;20084;-79
2022/11/21 04:30:41;;;;;;;28.20;18.48;;;0.50;99.90;;;;;;5077033;28;20032;-80
2022/11/21 04:33:13;;;;;;;26.48;17.38;;;0.50;99.90;;;;;;5014655;28;20097;-81
2022/11/21 04:35:39;;;;;;;29.35;18.20;;;1.00;99.90;;;;;;5055378;28;20075;-81
2022/11/21 04:38:05;;;;;;;31.20;19.45;;;0.80;99.90;;;;;;5055658;28;20059;-80
2022/11/21 04:40:31;;;;;;;34.75;19.13;;;0.50;99.90;;;;;;5067208;28;20025;-80
2022/11/21 04:42:56;;;;;;;30.63;17.88;;;0.50;99.90;;;;;;5090262;28;20109;-80
2022/11/21 04:45:22;;;;;;;33.00;20.23;;;0.50;99.90;;;;;;5052005;28;20150;-80
2022/11/21 04:47:49;;;;;;;29.25;17.90;;;0.50;99.90;;;;;;5041505;28;20114;-80
2022/11/21 04:50:16;;;;;;;28.67;17.15;;;0.40;99.90;;;;;;5023657;28;20566;-81
2022/11/21 04:52:47;;;;;;;33.17;20.00;;;1.10;99.90;;;;;;5070489;28;20032;-80
2022/11/21 04:55:13;;;;;;;35.67;21.25;;;0.40;99.90;;;;;;5073455;28;20028;-81
2022/11/21 04:57:39;;;;;;;30.20;18.23;;;0.40;99.90;;;;;;5023682;28;20052;-81
2022/11/21 05:00:05;;;;;;;30.10;18.02;;;1.30;99.90;;;;;;5038858;28;20113;-80
2022/11/21 05:02:32;;;;;;;34.20;19.98;;;0.30;99.90;;;;;;5026708;28;20036;-79
2022/11/21 05:04:58;;;;;;;32.88;20.15;;;0.20;99.90;;;;;;5055776;28;20039;-83
2022/11/21 05:07:24;;;;;;;30.00;18.98;;;0.30;99.90;;;;;;5055785;28;20039;-84
2022/11/21 05:09:50;;;;;;;34.90;20.58;;;1.10;99.90;;;;;;5060556;28;20040;-81
2022/11/21 05:15:07;;;;;;;29.73;18.75;;;0.30;99.90;;;;;;5041529;28;20052;-81
2022/11/21 05:17:33;;;;;;;30.33;20.20;;;0.30;99.90;;;;;;5040326;28;20063;-80
2022/11/21 05:19:59;;;;;;;34.67;20.98;;;0.30;99.90;;;;;;5070818;28;20040;-81
2022/11/21 05:22:25;;;;;;;34.63;20.95;;;0.60;99.90;;;;;;5053893;28;20028;-80
2022/11/21 05:24:50;;;;;;;38.20;22.52;;;1.10;99.90;;;;;;5073702;28;20582;-81
2022/11/21 05:27:16;;;;;;;35.30;20.48;;;0.90;99.90;;;;;;5070089;28;20020;-84
2022/11/21 05:29:42;;;;;;;35.65;22.08;;;0.30;99.90;;;;;;5074417;28;20044;-84
2022/11/21 05:32:08;;;;;;;39.03;21.95;;;0.30;99.90;;;;;;5084637;28;20055;-82
2022/11/21 05:34:33;;;;;;;31.90;20.27;;;0.60;99.90;;;;;;5057637;28;20265;-80
2022/11/21 05:36:59;;;;;;;37.45;21.48;;;0.30;99.90;;;;;;5027523;28;20399;-81
2022/11/21 05:39:25;;;;;;;32.58;20.75;;;1.00;99.90;;;;;;5058636;28;20074;-80
2022/11/21 05:41:51;;;;;;;35.83;22.05;;;0.30;99.90;;;;;;5059295;28;20028;-81
2022/11/21 05:44:17;;;;;;;31.17;18.70;;;0.40;99.90;;;;;;5057385;28;20040;-81
2022/11/21 05:46:43;;;;;;;41.08;24.55;;;1.30;99.90;;;;;;5068367;28;20044;-82
2022/11/21 05:49:09;;;;;;;38.40;22.40;;;0.40;99.90;;;;;;5056754;28;20502;-83
2022/11/21 05:51:35;;;;;;;37.50;21.65;;;0.40;99.90;;;;;;5058980;28;20040;-82
2022/11/21 05:54:01;;;;;;;37.22;22.48;;;0.40;99.90;;;;;;5057631;28;20123;-83
2022/11/21 05:56:26;;;;;;;42.25;24.45;;;0.50;99.90;;;;;;5055676;28;20036;-81
2022/11/21 05:58:57;;;;;;;41.70;23.58;;;0.50;99.90;;;;;;5087316;28;20067;-80
2022/11/21 06:04:08;;;;;;;40.85;23.08;;;0.50;99.90;;;;;;5059304;28;20078;-80
2022/11/21 06:06:34;;;;;;;35.28;21.33;;;0.50;99.90;;;;;;5069696;28;20109;-81
2022/11/21 06:09:00;;;;;;;36.65;22.77;;;0.50;99.90;;;;;;5055298;28;20047;-81
2022/11/21 06:11:26;;;;;;;37.13;23.33;;;0.50;99.90;;;;;;5061288;28;20032;-81
2022/11/21 06:13:53;;;;;;;38.67;22.20;;;0.50;99.90;;;;;;5075913;28;20054;-81
2022/11/21 06:16:19;;;;;;;40.88;23.77;;;0.50;99.90;;;;;;5057881;28;20069;-81
2022/11/21 06:18:47;;;;;;;39.47;21.83;;;0.50;99.90;;;;;;5057935;28;20492;-82
2022/11/21 06:21:17;;;;;;;39.75;22.70;;;0.50;99.90;;;;;;5058509;28;20042;-82
2022/11/21 06:23:43;;;;;;;42.78;23.75;;;0.40;99.90;;;;;;5073510;28;20050;-83
2022/11/21 06:26:15;;;;;;;43.47;25.17;;;0.40;99.90;;;;;;5055504;28;20043;-79
2022/11/21 06:28:42;;;;;;;39.92;23.90;;;0.90;99.90;;;;;;5056551;28;20035;-80
2022/11/21 06:31:13;;;;;;;41.22;23.90;;;0.40;99.90;;;;;;5071697;28;20040;-81
2022/11/21 06:33:40;;;;;;;34.83;21.83;;;0.40;99.90;;;;;;5055141;28;20152;-83
2022/11/21 06:36:15;;;;;;;37.60;22.50;;;0.40;99.90;;;;;;5090566;28;20710;-82
2022/11/21 06:38:41;;;;;;;41.15;23.35;;;0.40;99.90;;;;;;5057211;28;20074;-81
2022/11/21 06:41:11;;;;;;;42.38;23.95;;;0.40;99.90;;;;;;5071071;28;20048;-82
2022/11/21 06:43:37;;;;;;;35.97;21.30;;;0.30;99.90;;;;;;5056317;28;20040;-82
2022/11/21 06:46:03;;;;;;;42.50;23.52;;;0.30;99.90;;;;;;5067405;28;20040;-81
2022/11/21 06:48:33;;;;;;;38.80;22.80;;;0.30;99.90;;;;;;5056774;28;20035;-82
2022/11/21 06:51:06;;;;;;;40.97;24.60;;;0.30;99.90;;;;;;5055236;28;20063;-82
2022/11/21 06:53:33;;;;;;;38.67;20.15;;;0.30;99.90;;;;;;5036765;28;20036;-81
2022/11/21 06:55:59;;;;;;;34.63;21.00;;;0.20;99.90;;;;;;5063422;28;20028;-79
2022/11/21 06:58:25;;;;;;;37.00;23.13;;;0.80;99.90;;;;;;5083683;28;20032;-80
2022/11/21 07:00:51;;;;;;;44.08;24.30;;;1.20;99.90;;;;;;5049397;28;20326;-81
2022/11/21 07:03:17;;;;;;;44.00;23.33;;;0.10;99.90;;;;;;5081739;28;20051;-81
2022/11/21 07:05:42;;;;;;;32.00;20.27;;;1.10;99.90;;;;;;5070860;28;20392;-80
2022/11/21 07:08:08;;;;;;;43.35;24.55;;;1.30;99.90;;;;;;5034359;28;20044;-82
2022/11/21 07:10:34;;;;;;;38.42;22.42;;;0.20;99.90;;;;;;5043463;28;20043;-80
2022/11/21 07:15:46;;;;;;;38.58;21.63;;;0.20;99.90;;;;;;5056934;28;20039;-80
2022/11/21 07:18:12;;;;;;;42.13;22.75;;;0.20;99.90;;;;;;5023398;28;20520;-81
2022/11/21 07:20:39;;;;;;;42.22;23.50;;;0.20;99.90;;;;;;5071905;28;20039;-81
2022/11/21 07:23:05;;;;;;;40.10;22.73;;;0.20;99.90;;;;;;5083666;28;20020;-84
2022/11/21 07:25:31;;;;;;;36.88;22.63;;;0.20;99.90;;;;;;5077539;28;20527;-84
2022/11/21 07:28:01;;;;;;;40.30;24.02;;;0.20;99.90;;;;;;5075347;28;20032;-83
2022/11/21 07:30:27;;;;;;;36.13;21.33;;;0.20;99.90;;;;;;5073588;28;20703;-81
2022/11/21 07:33:06;;;;;;;39.05;23.27;;;0.20;99.90;;;;;;5074553;28;20040;-81
2022/11/21 07:35:33;;;;;;;41.30;23.73;;;0.20;99.90;;;;;;5040100;28;20063;-82
2022/11/21 07:37:59;;;;;;;45.65;25.45;;;0.20;99.90;;;;;;5059780;28;20051;-81
2022/11/21 07:40:24;;;;;;;40.08;23.83;;;0.20;99.90;;;;;;5061774;28;20044;-82
2022/11/21 07:42:50;;;;;;;44.75;24.98;;;0.10;99.90;;;;;;5057796;28;20054;-83
2022/11/21 07:45:16;;;;;;;41.65;23.98;;;0.10;99.90;;;;;;5058640;28;20032;-81
2022/11/21 07:47:42;;;;;;;41.97;23.85;;;0.10;99.90;;;;;;5058810;28;20052;-82
2022/11/21 07:50:09;;;;;;;46.63;26.33;;;0.70;99.90;;;;;;5047996;28;20048;-83
2022/11/21 07:52:35;;;;;;;46.13;26.48;;;0.20;99.90;;;;;;5050782;28;20585;-84
2022/11/21 07:55:02;;;;;;;49.58;25.30;;;0.20;99.90;;;;;;5054153;28;20044;-83
2022/11/21 07:57:28;;;;;;;40.38;22.13;;;0.20;99.90;;;;;;5063872;28;20031;-82
2022/11/21 07:59:54;;;;;;;41.65;24.35;;;0.20;99.90;;;;;;5056533;28;20063;-83
2022/11/21 08:02:22;;;;;;;42.97;23.92;;;0.30;99.90;;;;;;5075053;28;20040;-82
2022/11/21 08:04:48;;;;;;;45.78;25.05;;;1.10;99.90;;;;;;5057691;28;20509;-83
2022/11/21 08:07:15;;;;;;;46.30;26.88;;;0.40;99.90;;;;;;5036224;28;20060;-80
2022/11/21 08:09:41;;;;;;;41.45;23.60;;;0.50;99.90;;;;;;5076378;28;20618;-82
2022/11/21 08:12:07;;;;;;;48.85;27.88;;;0.50;99.90;;;;;;5068385;28;20040;-82
2022/11/21 08:14:33;;;;;;;45.08;28.23;;;1.20;99.90;;;;;;5076975;28;20060;-81
2022/11/21 08:16:59;;;;;;;39.72;23.25;;;0.60;99.90;;;;;;5040023;28;20119;-82
2022/11/21 08:19:24;;;;;;;39.70;23.33;;;0.60;99.90;;;;;;5059211;28;20192;-83
2022/11/21 08:21:50;;;;;;;40.78;22.38;;;0.80;99.90;;;;;;5057966;28;20040;-82
2022/11/21 08:24:16;;;;;;;38.67;23.38;;;0.70;99.90;;;;;;5056867;28;20050;-82
2022/11/21 08:26:45;;;;;;;35.85;22.15;;;0.80;99.90;;;;;;5047513;28;20061;-81
2022/11/21 08:29:12;;;;;;;37.67;21.65;;;0.80;99.90;;;;;;5056188;28;20036;-81
2022/11/21 08:31:38;;;;;;;39.28;22.67;;;0.80;99.90;;;;;;5104304;22;20048;-81
2022/11/21 08:34:04;;;;;;;34.50;20.77;;;0.90;99.90;;;;;;5000841;28;20124;-79
2022/11/21 08:36:32;;;;;;;37.70;23.08;;;0.90;99.90;;;;;;5033177;28;20091;-81
2022/11/21 08:38:58;;;;;;;35.40;20.95;;;1.00;99.90;;;;;;5034050;28;20061;-81
2022/11/21 08:44:10;;;;;;;41.70;22.60;;;1.00;99.90;;;;;;5058773;28;20056;-81
2022/11/21 08:46:36;;;;;;;40.03;23.77;;;1.10;99.90;;;;;;5038669;28;20131;-80
2022/11/21 08:49:03;;;;;;;42.60;23.70;;;1.80;99.90;;;;;;5052393;28;20037;-81
2022/11/21 08:51:29;;;;;;;44.30;25.95;;;1.10;99.90;;;;;;5046842;28;20036;-83
2022/11/21 08:53:54;;;;;;;40.40;24.25;;;1.20;99.90;;;;;;5046266;28;20672;-81
2022/11/21 08:56:20;;;;;;;40.70;23.67;;;1.20;99.90;;;;;;5047672;28;20133;-80
2022/11/21 08:58:46;;;;;;;40.97;23.20;;;1.20;99.90;;;;;;5034201;28;20040;-81
2022/11/21 09:01:11;;;;;;;39.78;23.50;;;1.20;99.90;;;;;;5040777;28;20535;-80
2022/11/21 09:03:37;;;;;;;42.95;22.70;;;1.30;99.90;;;;;;5020530;28;20120;-80
2022/11/21 09:06:03;;;;;;;43.80;25.15;;;1.30;99.90;;;;;;5054765;28;20112;-81
2022/11/21 09:08:30;;;;;;;39.17;22.17;;;1.30;99.90;;;;;;5038529;28;20045;-81
2022/11/21 09:10:56;;;;;;;36.55;20.13;;;1.30;99.90;;;;;;5050940;28;20033;-80
2022/11/21 09:13:22;;;;;;;39.00;21.02;;;1.30;99.90;;;;;;5015907;28;20038;-81
2022/11/21 09:18:32;;;;;;;;;;;1.30;99.90;;;;;;5057397;28;20684;-78
2022/11/21 09:20:58;;;;;;;36.17;19.25;;;2.20;99.90;;;;;;5068870;28;19904;-83
2022/11/21 09:23:24;;;;;;;36.75;21.50;;;1.40;99.90;;;;;;5041873;28;20059;-80
2022/11/21 09:25:49;;;;;;;32.60;19.20;;;1.80;99.90;;;;;;5047177;28;20059;-80
2022/11/21 09:28:15;;;;;;;34.03;20.25;;;1.40;99.90;;;;;;5043816;28;20048;-81
2022/11/21 09:30:42;;;;;;;36.92;19.45;;;1.60;99.90;;;;;;5028357;28;20041;-81
2022/11/21 09:33:11;;;;;;;36.42;21.73;;;1.50;99.90;;;;;;5034849;28;20131;-81
2022/11/21 09:35:38;;;;;;;33.42;19.02;;;1.50;99.90;;;;;;5037729;28;20041;-80
2022/11/21 09:38:04;;;;;;;32.72;18.60;;;1.60;99.90;;;;;;5049420;28;20620;-81
2022/11/21 09:40:31;;;;;;;34.28;18.98;;;1.60;99.90;;;;;;5052630;28;20041;-81
2022/11/21 09:43:21;;;;;;;32.55;18.83;;;1.70;99.90;;;;;;5036310;28;20033;-82
2022/11/21 09:45:49;;;;;;;28.52;18.02;;;1.70;99.90;;;;;;5051220;28;20577;-81
2022/11/21 09:48:47;;;;;;;34.67;20.50;;;2.10;99.90;;;;;;5042934;28;20050;-83
2022/11/21 09:51:15;;;;;;;33.60;20.00;;;1.70;99.90;;;;;;5018153;28;20555;-81
2022/11/21 09:53:57;;;;;;;39.63;21.98;;;2.60;99.90;;;;;;5035077;28;20547;-80
2022/11/21 09:56:23;;;;;;;34.60;21.50;;;2.10;99.90;;;;;;5051117;28;20105;-80
2022/11/21 09:59:14;;;;;;;33.45;20.70;;;1.90;99.90;;;;;;5052134;28;20041;-83
2022/11/21 10:01:40;;;;;;;33.78;21.58;;;2.00;99.90;;;;;;5065800;28;20588;-80
2022/11/21 10:04:05;;;;;;;33.65;20.77;;;2.10;99.90;;;;;;5049381;28;20083;-80
2022/11/21 10:06:41;;;;;;;31.13;19.05;;;2.50;99.90;;;;;;5018960;28;20567;-81
2022/11/21 10:09:22;;;;;;;28.90;17.67;;;2.20;99.90;;;;;;5043073;28;20048;-81
2022/11/21 10:14:59;;;;;;;25.58;17.33;;;2.60;99.90;;;;;;5040968;28;20495;-81
2022/11/21 10:17:44;;;;;;;27.83;17.13;;;2.30;99.90;;;;;;5034118;28;20083;-82
2022/11/21 10:20:21;;;;;;;24.17;15.80;;;2.30;99.90;;;;;;5041874;28;20522;-81
2022/11/21 10:22:52;;;;;;;24.80;15.68;;;2.40;99.90;;;;;;5051354;28;20060;-83
2022/11/21 10:25:31;;;;;;;24.52;15.07;;;3.30;99.90;;;;;;5033672;28;20119;-82
2022/11/21 10:28:21;;;;;;;23.88;15.05;;;2.80;99.90;;;;;;5053030;28;20120;-80
2022/11/21 10:30:49;;;;;;;21.95;13.98;;;2.50;99.90;;;;;;5057280;28;20180;-81
2022/11/21 10:33:24;;;;;;;23.25;13.50;;;2.60;99.90;;;;;;5053997;28;20925;-80
2022/11/21 10:35:54;;;;;;;23.70;15.15;;;2.60;99.90;;;;;;5050237;28;20116;-83
2022/11/21 10:38:22;;;;;;;29.15;15.52;;;2.60;99.90;;;;;;5049662;28;20050;-81
2022/11/21 10:40:53;;;;;;;23.20;14.77;;;2.70;99.90;;;;;;5036437;28;20688;-83
2022/11/21 10:46:06;;;;;;;23.20;15.20;;;2.70;99.90;;;;;;5057810;28;20041;-80
2022/11/21 10:48:36;;;;;;;21.08;13.93;;;2.70;99.90;;;;;;5015174;28;20103;-82
2022/11/21 10:51:24;;;;;;;23.40;14.77;;;2.70;99.90;;;;;;5054061;28;20119;-81
2022/11/21 10:56:57;;;;;;;21.20;13.50;;;2.80;99.90;;;;;;5052429;28;20433;-80
2022/11/21 10:59:28;;;;;;;20.00;13.48;;;2.80;99.90;;;;;;5056622;28;20048;-82
2022/11/21 11:02:00;;;;;;;23.17;14.50;;;2.90;99.90;;;;;;5030940;28;20037;-81
2022/11/21 11:04:31;;;;;;;21.80;13.55;;;2.90;99.90;;;;;;5052937;28;20065;-82
2022/11/21 11:06:58;;;;;;;25.15;15.85;;;3.20;99.90;;;;;;5037057;28;20067;-83
2022/11/21 11:09:31;;;;;;;22.55;14.82;;;3.70;99.90;;;;;;5020990;28;20375;-82
2022/11/21 11:12:22;;;;;;;21.20;14.13;;;3.10;99.90;;;;;;5046836;28;20556;-81
2022/11/21 11:14:54;;;;;;;21.70;14.38;;;2.90;99.90;;;;;;5037604;28;20091;-83
2022/11/21 11:17:32;;;;;;;21.23;13.75;;;2.90;99.90;;;;;;5032198;28;20068;-80
2022/11/21 11:20:04;;;;;;;20.10;13.07;;;3.60;99.90;;;;;;5064180;28;20029;-82
2022/11/21 11:22:30;;;;;;;20.42;13.40;;;3.10;99.90;;;;;;5050011;28;20044;-84
2022/11/21 11:24:56;;;;;;;22.10;13.70;;;3.10;99.90;;;;;;5031371;28;20049;-81
2022/11/21 11:27:28;;;;;;;19.50;12.85;;;3.10;99.90;;;;;;5043233;28;20404;-81
2022/11/21 11:29:54;;;;;;;20.58;13.15;;;4.10;99.90;;;;;;5029326;28;20033;-82
2022/11/21 11:32:20;;;;;;;20.65;13.95;;;4.10;99.90;;;;;;5057342;28;20091;-82
2022/11/21 11:34:59;;;;;;;18.17;12.70;;;3.20;99.90;;;;;;5040781;28;20083;-84
2022/11/21 11:37:39;;;;;;;19.77;13.05;;;3.20;99.90;;;;;;5055598;28;20458;-83
2022/11/21 11:40:31;;;;;;;19.40;12.55;;;3.30;99.90;;;;;;5052512;28;20072;-82
2022/11/21 11:49:16;;;;;;;19.85;12.82;;;3.50;99.90;;;;;;5054247;28;20128;-80
2022/11/21 11:51:47;;;;;;;16.90;11.55;;;4.30;99.90;;;;;;5032788;28;20112;-83
2022/11/21 11:54:18;;;;;;;17.75;12.75;;;3.80;99.90;;;;;;5055099;28;20033;-84
2022/11/21 11:56:45;;;;;;;19.48;12.02;;;4.20;99.90;;;;;;5051211;28;20091;-82
2022/11/21 11:59:20;;;;;;;19.38;12.90;;;3.60;99.90;;;;;;5049411;28;20045;-83
2022/11/21 12:02:05;;;;;;;19.42;13.57;;;3.70;99.90;;;;;;5049128;28;20033;-85
2022/11/21 12:04:52;;;;;;;17.77;12.52;;;3.70;99.90;;;;;;5050651;28;20044;-85
2022/11/21 12:07:36;;;;;;;18.95;12.23;;;3.80;99.90;;;;;;5036562;28;20040;-85
2022/11/21 12:10:27;;;;;;;19.15;13.05;;;4.10;99.90;;;;;;5036073;28;20078;-85
2022/11/21 12:13:10;;;;;;;19.55;13.18;;;3.80;99.90;;;;;;5029985;28;20041;-84
2022/11/21 12:15:51;;;;;;;19.67;12.57;;;4.70;99.90;;;;;;5039548;28;20052;-84
2022/11/21 12:18:20;;;;;;;18.08;11.93;;;4.80;99.90;;;;;;5031461;28;20041;-83
2022/11/21 12:21:06;;;;;;;17.45;12.07;;;3.90;99.90;;;;;;5053722;28;20114;-84
2022/11/21 12:23:46;;;;;;;18.83;12.02;;;3.90;99.90;;;;;;5048240;28;20037;-85
2022/11/21 12:26:33;;;;;;;17.67;12.45;;;4.00;99.90;;;;;;5038195;28;20045;-84
2022/11/21 12:29:05;;;;;;;17.45;11.73;;;4.10;99.90;;;;;;5052003;28;20056;-82
2022/11/21 12:31:40;;;;;;;16.25;11.85;;;4.10;99.90;;;;;;5052070;28;20533;-83
2022/11/21 12:34:14;;;;;;;14.75;11.00;;;4.20;99.90;;;;;;5060226;28;20049;-82
2022/11/21 12:36:55;;;;;;;14.40;10.45;;;4.30;99.90;;;;;;5052428;28;20040;-82
2022/11/21 12:39:36;;;;;;;16.02;11.27;;;4.40;99.90;;;;;;5039969;28;20049;-82
2022/11/21 12:42:49;;;;;;;15.73;10.90;;;5.40;99.90;;;;;;5046289;28;20037;-82
2022/11/21 12:45:31;;;;;;;14.93;11.20;;;4.50;99.90;;;;;;5011353;28;20069;-80
2022/11/21 12:55:16;;;;;;;12.40;8.93;;;4.70;99.90;;;;;;4954038;28;19929;-81
2022/11/21 12:58:18;;;;;;;14.85;9.50;;;4.70;99.90;;;;;;4957559;28;20105;-83
2022/11/21 13:01:08;;;;;;;13.27;9.65;;;4.80;99.90;;;;;;5034839;28;20044;-82
2022/11/21 13:03:43;;;;;;;15.15;10.70;;;4.80;99.90;;;;;;5030849;28;20056;-83
2022/11/21 13:06:21;;;;;;;15.75;10.30;;;4.80;99.90;;;;;;5032101;28;20051;-84
2022/11/21 13:08:50;;;;;;;18.15;10.80;;;5.10;99.90;;;;;;5033476;28;20072;-83
2022/11/21 13:14:13;;;;;;;17.13;11.57;;;4.80;99.90;;;;;;5051203;28;20037;-84
2022/11/21 13:16:45;;;;;;;19.90;12.15;;;4.80;99.90;;;;;;5038490;28;20031;-79
2022/11/21 13:19:36;;;;;;;17.50;11.98;;;4.80;99.90;;;;;;5081822;28;20060;-83
2022/11/21 13:22:02;;;;;;;17.95;12.35;;;4.90;99.90;;;;;;5065195;28;20119;-90
2022/11/21 13:24:43;;;;;;;17.45;12.43;;;4.90;99.90;;;;;;5039853;28;20665;-85
2022/11/21 13:27:30;;;;;;;16.55;11.65;;;5.50;99.90;;;;;;5065666;28;20048;-84